Terminal Aerodrome Forecast
Issued by NWS

Home | Current Version | Previous Version | Text Only | Print | Product List | Glossary On
Versions: 1 2 3 4 5 6 7 8 9 10 11 12 13 14 15 16 17 18 19 20 21 22 23 24 25 26 27 28 29 30
000
FTUS43 KDVN 221000 AAB
TAFCID
TAF AMD
KCID 221002Z 2210/2306 16012KT 6SM BR SCT012 OVC045
      TEMPO 2210/2214 5SM -RA BR OVC015
     FM221400 14011KT P6SM VCSH BKN007 OVC012
     FM221600 10010KT 4SM -RADZ BR BKN007 OVC012=

USA.gov is the U.S. government's official web portal to all federal, state and local government web resources and services.